createdAt,value
2022-09-30T04:00:25.779Z,11.30
2022-09-30T04:11:30.538Z,9.10
2022-09-30T04:22:30.411Z,13.20
2022-09-30T04:33:30.288Z,10.60
2022-09-30T04:44:30.167Z,6.00
2022-09-30T04:55:30.050Z,6.50
2022-09-30T05:06:29.926Z,9.40
2022-09-30T05:17:29.793Z,10.20
2022-09-30T05:28:29.671Z,7.60
2022-09-30T05:39:29.603Z,7.90
2022-09-30T05:50:29.424Z,24.10
2022-09-30T06:01:29.370Z,10.50
2022-09-30T06:12:29.171Z,10.00
2022-09-30T06:23:29.082Z,10.50
2022-09-30T06:34:28.929Z,17.10
2022-09-30T06:45:32.642Z,13.10
2022-09-30T06:56:28.677Z,16.90
2022-09-30T07:07:28.553Z,11.50
2022-09-30T07:18:28.438Z,13.50
2022-09-30T07:29:36.578Z,19.00
2022-09-30T07:40:28.191Z,16.10
2022-09-30T07:51:28.067Z,14.70
2022-09-30T08:02:27.979Z,20.60
2022-09-30T08:13:27.818Z,30.90
2022-09-30T08:24:27.861Z,37.50
2022-09-30T08:35:27.559Z,33.90
2022-09-30T08:46:27.520Z,33.80
2022-09-30T08:57:27.319Z,28.40
2022-09-30T09:08:27.186Z,36.20
2022-09-30T09:19:27.083Z,31.10
2022-09-30T09:30:26.947Z,28.50
2022-09-30T09:41:26.811Z,53.30
2022-09-30T09:52:26.703Z,28.80
2022-09-30T10:03:26.604Z,30.10
2022-09-30T10:14:26.441Z,14.70
2022-09-30T10:25:26.314Z,9.40
2022-09-30T10:36:26.199Z,17.50
2022-09-30T10:47:27.064Z,18.60
2022-09-30T10:58:25.938Z,9.90
2022-09-30T11:09:25.945Z,12.80
2022-09-30T11:20:25.696Z,11.30
2022-09-30T11:31:25.669Z,7.60
2022-09-30T11:42:25.486Z,8.00
2022-09-30T11:53:25.315Z,7.00
2022-09-30T12:04:25.190Z,6.10
2022-09-30T12:15:25.064Z,7.20
2022-09-30T12:26:24.960Z,4.40
2022-09-30T12:37:24.845Z,4.60
2022-09-30T12:48:24.698Z,10.80
2022-09-30T12:59:24.567Z,3.60
2022-09-30T13:10:24.440Z,5.20
2022-09-30T13:21:24.336Z,4.50
2022-09-30T13:32:24.197Z,9.30
2022-09-30T13:43:24.074Z,8.00
2022-09-30T13:54:23.936Z,7.10
2022-09-30T14:05:23.828Z,6.10
2022-09-30T14:16:23.726Z,4.10
2022-09-30T14:27:23.572Z,7.20
2022-09-30T14:38:23.440Z,7.50
2022-09-30T14:49:23.320Z,3.80
2022-09-30T15:00:23.198Z,3.80
2022-09-30T15:11:23.070Z,6.20
2022-09-30T15:22:22.941Z,3.50
2022-09-30T15:33:22.859Z,3.00
2022-09-30T15:44:22.713Z,2.70
2022-09-30T15:55:22.690Z,2.80
2022-09-30T16:06:22.444Z,7.40
2022-09-30T16:17:22.318Z,2.40
2022-09-30T16:28:22.243Z,2.00
2022-09-30T16:39:22.069Z,1.90
2022-09-30T16:50:21.957Z,3.70
2022-09-30T17:01:21.841Z,4.80
2022-09-30T17:12:21.715Z,2.70
2022-09-30T17:23:21.568Z,2.70
2022-09-30T17:34:21.442Z,4.00
2022-09-30T17:45:21.327Z,7.40
2022-09-30T17:56:21.194Z,2.90
2022-09-30T18:07:21.074Z,6.80
2022-09-30T18:18:20.962Z,5.10
2022-09-30T18:29:20.820Z,3.90
2022-09-30T18:40:20.695Z,5.70
2022-09-30T18:51:20.572Z,5.70
2022-09-30T19:02:20.434Z,5.60
2022-09-30T19:13:20.319Z,10.20
2022-09-30T19:24:24.057Z,8.70
2022-09-30T19:35:25.252Z,10.00
2022-09-30T19:46:20.007Z,5.90
2022-09-30T19:57:19.818Z,7.50
2022-09-30T20:08:19.720Z,9.50
2022-09-30T20:19:19.568Z,9.10
2022-09-30T20:30:19.454Z,7.50
2022-09-30T20:41:19.335Z,9.10
2022-09-30T20:52:19.205Z,8.50
